Time;durP1;ratioP1;P1;durP2;ratioP2;P2;SDS_P1;SDS_P2;PMS_P1;PMS_P2;Temp;Humidity;BMP_temperature;BMP_pressure;BME280_temperature;BME280_humidity;BME280_pressure;Samples;Min_cycle;Max_cycle;Signal;HPM_P1;HPM_P2
2023/05/03 00:00:07;;;;;;;0.88;0.47;;;;;;;8.18;64.23;103057.66;4991633;28;97871;-32
2023/05/03 00:02:37;;;;;;;0.85;0.60;;;;;;;8.16;64.46;103064.88;4990528;28;101045;-31
2023/05/03 00:05:03;;;;;;;1.23;0.50;;;;;;;8.13;64.19;103067.63;4990612;28;96639;-32
2023/05/03 00:07:29;;;;;;;0.63;0.40;;;;;;;8.11;64.80;103057.78;4991898;28;96821;-33
2023/05/03 00:09:54;;;;;;;4.07;0.60;;;;;;;8.12;64.53;103065.81;4991943;28;97369;-31
2023/05/03 00:12:19;;;;;;;0.90;0.57;;;;;;;8.09;64.62;103055.09;4991919;28;97846;-32
2023/05/03 00:14:45;;;;;;;2.10;0.60;;;;;;;8.02;65.11;103051.59;4991676;28;96465;-32
2023/05/03 00:17:11;;;;;;;0.93;0.50;;;;;;;7.98;64.41;103057.03;4992406;28;96745;-33
2023/05/03 00:19:38;;;;;;;0.77;0.30;;;;;;;7.94;64.69;103053.53;4991674;28;98183;-32
2023/05/03 00:22:03;;;;;;;0.47;0.30;;;;;;;7.91;65.46;103053.53;4991691;28;97827;-31
2023/05/03 00:24:29;;;;;;;1.38;0.65;;;;;;;7.90;65.50;103051.78;4991102;28;96694;-32
2023/05/03 00:26:54;;;;;;;0.35;0.30;;;;;;;7.85;65.09;103048.25;4991861;28;96724;-31
2023/05/03 00:29:21;;;;;;;0.93;0.50;;;;;;;7.87;64.96;103047.31;4991468;28;99302;-31
2023/05/03 00:31:47;;;;;;;1.92;0.82;;;;;;;7.87;65.12;103043.72;4991239;28;99673;-32
2023/05/03 00:34:12;;;;;;;0.65;0.45;;;;;;;7.80;65.50;103031.25;4991736;28;96537;-32
2023/05/03 00:36:37;;;;;;;1.73;0.50;;;;;;;7.80;65.27;103042.03;4993085;28;96761;-31
2023/05/03 00:39:02;;;;;;;1.02;0.60;;;;;;;7.76;64.63;103037.59;4994956;28;99219;-31
2023/05/03 00:41:28;;;;;;;1.50;0.57;;;;;;;7.75;65.55;103035.81;4995390;28;104415;-31
2023/05/03 00:43:53;;;;;;;1.08;0.60;;;;;;;7.76;65.90;103034.91;4994807;28;96759;-32
2023/05/03 00:46:19;;;;;;;1.25;0.77;;;;;;;7.72;65.75;103042.13;4993754;28;96738;-32
2023/05/03 00:48:47;;;;;;;0.50;0.50;;;;;;;7.75;65.99;103049.31;4994418;28;97892;-31
2023/05/03 00:51:14;;;;;;;1.23;0.70;;;;;;;7.78;65.67;103051.97;4993318;28;100928;-32
2023/05/03 00:53:41;;;;;;;1.00;0.70;;;;;;;7.72;65.83;103049.34;4993201;28;96687;-32
2023/05/03 00:56:08;;;;;;;1.08;0.68;;;;;;;7.69;65.77;103047.56;4993513;28;96761;-32
2023/05/03 00:58:35;;;;;;;2.63;0.60;;;;;;;7.70;65.22;103043.97;4993025;28;100780;-31
2023/05/03 01:01:01;;;;;;;1.05;0.60;;;;;;;7.70;66.07;103048.47;4993200;28;100795;-33
2023/05/03 01:03:27;;;;;;;0.77;0.47;;;;;;;7.69;65.75;103049.38;4994921;28;96580;-31
2023/05/03 01:06:00;;;;;;;0.40;0.35;;;;;;;7.66;66.04;103048.50;4994953;28;96817;-32
2023/05/03 01:08:34;;;;;;;0.60;0.57;;;;;;;7.66;66.25;103048.50;4994353;28;99612;-33
2023/05/03 01:11:22;;;;;;;0.88;0.55;;;;;;;7.65;65.85;103049.44;4993186;28;100897;-32
2023/05/03 01:13:55;;;;;;;1.00;0.47;;;;;;;7.67;66.58;103057.50;4993917;28;96624;-31
2023/05/03 01:16:25;;;;;;;1.13;0.85;;;;;;;7.67;65.86;103054.78;4993231;28;97060;-32
2023/05/03 01:18:54;;;;;;;1.38;1.00;;;;;;;7.61;66.88;103053.09;4993096;28;102020;-32
2023/05/03 01:21:21;;;;;;;1.33;0.65;;;;;;;7.65;66.40;103053.91;4992851;28;101289;-31
2023/05/03 01:24:06;;;;;;;1.50;0.95;;;;;;;7.59;65.66;103044.13;4994342;28;96599;-32
2023/05/03 01:26:32;;;;;;;0.85;0.57;;;;;;;7.61;66.07;103049.50;4994296;28;96741;-31
2023/05/03 01:28:59;;;;;;;1.17;0.80;;;;;;;7.55;66.00;103050.44;4992493;28;100871;-32
2023/05/03 01:31:30;;;;;;;1.25;0.73;;;;;;;7.58;66.49;103053.13;4993188;28;98916;-31
2023/05/03 01:34:20;;;;;;;0.35;0.30;;;;;;;7.56;66.09;103049.56;4994191;28;96594;-31
2023/05/03 01:36:48;;;;;;;2.80;0.90;;;;;;;7.55;66.36;103041.47;4994475;28;96738;-31
2023/05/03 01:39:22;;;;;;;0.40;0.32;;;;;;;7.52;66.10;103038.84;4992243;28;100774;-32
2023/05/03 01:41:51;;;;;;;0.50;0.45;;;;;;;7.53;65.92;103046.91;4992672;28;101152;-31
2023/05/03 01:44:19;;;;;;;2.50;0.40;;;;;;;7.48;66.33;103039.78;4992071;28;100915;-31
2023/05/03 01:46:45;;;;;;;0.88;0.70;;;;;;;7.44;66.19;103039.81;4992650;28;96806;-32
2023/05/03 01:49:11;;;;;;;0.45;0.45;;;;;;;7.43;66.78;103035.31;4991546;28;101133;-32
2023/05/03 01:51:37;;;;;;;0.95;0.70;;;;;;;7.38;66.25;103028.22;4992373;28;101005;-32
2023/05/03 01:54:02;;;;;;;2.78;1.00;;;;;;;7.35;66.00;103020.19;4993627;28;96755;-33
2023/05/03 01:56:30;;;;;;;0.82;0.70;;;;;;;7.30;66.68;103020.25;4994224;28;96884;-31
2023/05/03 01:58:55;;;;;;;0.73;0.70;;;;;;;7.28;66.16;103011.28;4993332;28;99811;-32
2023/05/03 02:01:20;;;;;;;0.63;0.57;;;;;;;7.28;66.73;103007.69;4992692;28;98276;-31
2023/05/03 02:03:46;;;;;;;0.70;0.52;;;;;;;7.20;67.78;102991.63;4993079;28;96660;-31
2023/05/03 02:06:11;;;;;;;0.65;0.47;;;;;;;7.17;66.91;102987.13;4993736;28;96866;-31
2023/05/03 02:08:36;;;;;;;1.30;0.75;;;;;;;7.19;67.04;102981.75;4993501;28;98055;-31
2023/05/03 02:11:02;;;;;;;2.63;0.60;;;;;;;7.15;66.52;102975.50;4993701;28;98046;-31
2023/05/03 02:13:27;;;;;;;0.82;0.50;;;;;;;7.16;67.43;102977.28;4993699;28;96472;-31
2023/05/03 02:15:53;;;;;;;0.30;0.30;;;;;;;7.13;67.00;102973.75;4993839;28;96819;-31
2023/05/03 02:18:20;;;;;;;0.63;0.50;;;;;;;7.09;66.37;102978.28;4975602;28;101121;-31
2023/05/03 02:20:46;;;;;;;1.58;0.90;;;;;;;7.06;67.05;102982.81;4993806;28;97917;-32
2023/05/03 02:23:12;;;;;;;1.23;0.85;;;;;;;6.98;67.36;102994.59;4993392;28;96608;-31
2023/05/03 02:25:37;;;;;;;3.70;0.73;;;;;;;6.97;66.74;103000.00;4991917;28;96862;-32
2023/05/03 02:28:03;;;;;;;1.15;0.70;;;;;;;6.98;67.70;102999.97;4993024;28;98262;-31
2023/05/03 02:30:28;;;;;;;1.00;0.55;;;;;;;6.99;67.86;103003.56;4992711;28;98573;-32
2023/05/03 02:32:53;;;;;;;0.73;0.52;;;;;;;6.99;67.33;103007.13;4993249;28;96625;-31
2023/05/03 02:35:19;;;;;;;1.05;0.75;;;;;;;7.00;67.45;102997.25;4993595;28;96743;-31
2023/05/03 02:37:44;;;;;;;0.47;0.47;;;;;;;6.96;66.97;103003.56;4992658;28;99259;-32
2023/05/03 02:40:10;;;;;;;0.43;0.43;;;;;;;6.96;67.00;103015.28;4993371;28;97813;-31
2023/05/03 02:42:36;;;;;;;1.10;0.80;;;;;;;6.92;68.42;103018.91;4991862;28;96556;-31
2023/05/03 02:45:02;;;;;;;0.55;0.43;;;;;;;6.94;67.79;103022.47;4992986;28;96776;-31
2023/05/03 02:47:27;;;;;;;0.80;0.60;;;;;;;6.96;67.57;103034.13;4993126;28;97397;-32
2023/05/03 02:49:53;;;;;;;1.67;0.57;;;;;;;6.93;68.00;103019.78;4992976;28;97875;-31
2023/05/03 02:52:18;;;;;;;0.47;0.40;;;;;;;6.87;68.06;103026.16;4992620;28;96768;-31
2023/05/03 02:54:45;;;;;;;1.05;0.70;;;;;;;6.84;68.07;103015.41;4992840;28;96813;-31
2023/05/03 02:57:11;;;;;;;2.40;0.77;;;;;;;6.84;68.37;103026.19;4991178;28;100807;-32
2023/05/03 02:59:37;;;;;;;1.05;0.65;;;;;;;6.79;67.96;103012.75;4992592;28;99350;-32
2023/05/03 03:02:02;;;;;;;1.40;0.63;;;;;;;6.81;68.50;103010.03;4992892;28;96702;-31
2023/05/03 03:04:27;;;;;;;0.40;0.40;;;;;;;6.78;68.72;103007.38;4993185;28;96780;-32
2023/05/03 03:06:53;;;;;;;2.53;0.80;;;;;;;6.77;68.53;103017.28;4992777;28;98420;-31
2023/05/03 03:09:18;;;;;;;1.65;0.50;;;;;;;6.74;68.99;103028.06;4993242;28;97797;-31
2023/05/03 03:11:44;;;;;;;1.83;0.60;;;;;;;6.74;69.17;103028.06;4992864;28;96652;-32
2023/05/03 03:14:09;;;;;;;1.02;0.75;;;;;;;6.70;68.87;103026.31;4991445;28;96895;-31
2023/05/03 03:16:35;;;;;;;4.40;0.52;;;;;;;6.70;68.71;103026.31;4992223;28;97457;-31
2023/05/03 03:19:00;;;;;;;0.68;0.60;;;;;;;6.64;68.27;103037.16;4992743;28;97872;-32
2023/05/03 03:21:27;;;;;;;3.60;0.63;;;;;;;6.64;68.73;103037.16;4992790;28;96500;-32
2023/05/03 03:23:53;;;;;;;3.53;0.65;;;;;;;6.64;68.45;103038.94;4991185;28;96789;-32
2023/05/03 03:26:18;;;;;;;5.47;0.65;;;;;;;6.60;69.10;103030.00;4992527;28;97385;-31
2023/05/03 03:28:44;;;;;;;0.98;0.50;;;;;;;6.57;68.34;103036.31;4992194;28;98945;-31
2023/05/03 03:31:09;;;;;;;1.15;0.70;;;;;;;6.59;68.63;103039.00;4992453;28;96588;-31
2023/05/03 03:33:34;;;;;;;0.30;0.30;;;;;;;6.58;68.87;103035.41;4992624;28;96538;-32
2023/05/03 03:36:00;;;;;;;1.48;0.43;;;;;;;6.53;68.52;103025.56;4992077;28;98868;-31
2023/05/03 03:38:25;;;;;;;0.65;0.52;;;;;;;6.55;69.41;103031.84;4992156;28;97350;-32
2023/05/03 03:40:51;;;;;;;1.17;0.80;;;;;;;6.52;69.42;103021.13;4991923;28;96548;-32
2023/05/03 03:43:16;;;;;;;1.17;0.60;;;;;;;6.54;69.06;103025.56;4990798;28;97214;-31
2023/05/03 03:45:42;;;;;;;1.42;0.32;;;;;;;6.52;68.72;103030.06;4991876;28;101485;-32
2023/05/03 03:48:07;;;;;;;0.85;0.47;;;;;;;6.49;69.26;103031.91;4991910;28;99323;-32
2023/05/03 03:50:33;;;;;;;0.30;0.30;;;;;;;6.47;69.35;103034.63;4992396;28;96450;-31
2023/05/03 03:52:58;;;;;;;1.25;0.75;;;;;;;6.49;69.17;103040.88;4992209;28;97119;-31
2023/05/03 03:55:23;;;;;;;0.05;0.03;;;;;;;6.47;68.77;103045.38;4992379;28;97452;-31
2023/05/03 03:57:49;;;;;;;0.70;0.50;;;;;;;6.45;68.81;103046.31;4992262;28;97953;-31
2023/05/03 04:00:15;;;;;;;0.50;0.50;;;;;;;6.42;69.04;103060.69;4992041;28;96478;-31
2023/05/03 04:02:41;;;;;;;1.15;0.47;;;;;;;6.39;68.69;103058.03;4990709;28;96830;-32
2023/05/03 04:05:06;;;;;;;1.00;0.68;;;;;;;6.36;68.34;103056.25;4991474;28;98086;-32
2023/05/03 04:07:32;;;;;;;1.45;1.02;;;;;;;6.35;69.24;103057.16;4990186;28;101318;-33
2023/05/03 04:09:57;;;;;;;1.13;0.60;;;;;;;6.36;68.48;103066.09;4992196;28;96671;-31
2023/05/03 04:12:23;;;;;;;1.20;0.82;;;;;;;6.34;68.84;103065.22;4994142;28;96947;-32
2023/05/03 04:14:48;;;;;;;3.20;0.95;;;;;;;6.34;69.14;103076.00;4995217;28;98956;-32
2023/05/03 04:17:14;;;;;;;1.08;0.52;;;;;;;6.29;68.92;103064.38;4995259;28;99189;-32
2023/05/03 04:19:39;;;;;;;1.10;0.60;;;;;;;6.32;69.04;103072.44;4995640;28;96417;-32
2023/05/03 04:22:05;;;;;;;0.55;0.35;;;;;;;6.29;69.58;103075.13;4995601;28;96917;-31
2023/05/03 04:24:30;;;;;;;0.88;0.55;;;;;;;6.25;69.48;103074.28;4995141;28;100955;-32
2023/05/03 04:26:57;;;;;;;1.40;0.50;;;;;;;6.24;69.81;103069.78;4995080;28;99783;-31
2023/05/03 04:29:23;;;;;;;1.10;0.63;;;;;;;6.27;69.32;103072.47;4993320;28;97178;-32
2023/05/03 04:31:48;;;;;;;0.70;0.45;;;;;;;6.26;68.79;103057.22;4995062;28;96820;-33
2023/05/03 04:34:14;;;;;;;2.25;0.90;;;;;;;6.27;69.04;103069.78;4995114;28;98049;-31
2023/05/03 04:36:44;;;;;;;1.10;0.88;;;;;;;6.26;68.92;103059.91;4994743;28;99361;-31
2023/05/03 04:39:10;;;;;;;1.70;0.95;;;;;;;6.23;68.40;103065.31;4993666;28;96578;-32
2023/05/03 04:41:36;;;;;;;0.68;0.38;;;;;;;6.20;68.25;103053.69;4995071;28;96791;-31
2023/05/03 04:44:01;;;;;;;0.80;0.55;;;;;;;6.21;68.72;103059.06;4994369;28;101768;-31
2023/05/03 04:46:26;;;;;;;0.70;0.47;;;;;;;6.18;68.51;103052.81;4995487;28;97336;-31
2023/05/03 04:48:52;;;;;;;0.55;0.40;;;;;;;6.19;68.60;103058.16;4994841;28;96509;-32
2023/05/03 04:51:17;;;;;;;0.82;0.57;;;;;;;6.15;69.21;103056.44;4994874;28;96764;-31
2023/05/03 04:53:42;;;;;;;0.57;0.52;;;;;;;6.12;69.09;103060.00;4994495;28;97847;-32
2023/05/03 04:56:08;;;;;;;0.70;0.60;;;;;;;6.15;69.24;103054.63;4994503;28;104577;-32
2023/05/03 04:58:35;;;;;;;1.10;1.00;;;;;;;6.14;69.48;103060.91;4994748;28;96536;-31
2023/05/03 05:01:01;;;;;;;0.75;0.60;;;;;;;6.17;69.40;103070.75;4993453;28;96764;-32
2023/05/03 05:03:26;;;;;;;3.97;0.60;;;;;;;6.18;68.85;103066.28;4994577;28;97355;-33
2023/05/03 05:05:51;;;;;;;1.15;0.90;;;;;;;6.24;68.33;103068.91;4994286;28;99382;-32
2023/05/03 05:08:17;;;;;;;0.38;0.38;;;;;;;6.22;68.27;103055.47;4994833;28;96629;-31
2023/05/03 05:10:42;;;;;;;0.40;0.40;;;;;;;6.25;68.67;103065.31;4995152;28;96850;-32
2023/05/03 05:13:08;;;;;;;1.48;0.88;;;;;;;6.29;68.53;103067.97;4994574;28;97444;-31
2023/05/03 05:15:33;;;;;;;0.70;0.60;;;;;;;6.30;68.26;103061.69;4994505;28;97338;-33
2023/05/03 05:17:58;;;;;;;4.32;0.45;;;;;;;6.35;68.21;103073.31;4994207;28;97226;-31
2023/05/03 05:20:24;;;;;;;1.50;0.60;;;;;;;6.40;67.82;103069.69;4994386;28;96767;-32
2023/05/03 05:22:50;;;;;;;1.00;0.57;;;;;;;6.49;67.13;103078.56;4991520;28;99835;-32
2023/05/03 05:25:15;;;;;;;0.40;0.40;;;;;;;6.46;67.19;103065.16;4994054;28;99353;-31
2023/05/03 05:27:40;;;;;;;1.08;0.70;;;;;;;6.50;66.95;103071.38;4994548;28;96403;-32
2023/05/03 05:30:06;;;;;;;1.30;0.57;;;;;;;6.52;67.30;103081.22;4994597;28;96897;-31
2023/05/03 05:32:32;;;;;;;0.50;0.43;;;;;;;6.59;67.37;103076.69;4992725;28;101165;-30
2023/05/03 05:34:57;;;;;;;1.58;0.57;;;;;;;6.65;66.56;103075.72;4994265;28;99270;-31
2023/05/03 05:37:24;;;;;;;1.38;0.57;;;;;;;6.72;66.75;103083.75;4994386;28;96575;-33
2023/05/03 05:39:49;;;;;;;0.60;0.45;;;;;;;6.78;66.34;103077.41;4992862;28;96777;-31
2023/05/03 05:42:15;;;;;;;1.33;0.60;;;;;;;6.89;66.49;103090.75;4992228;28;100871;-31
2023/05/03 05:44:40;;;;;;;1.20;0.70;;;;;;;6.96;65.75;103092.47;4993395;28;97844;-31
2023/05/03 05:47:06;;;;;;;0.82;0.80;;;;;;;7.09;65.90;103091.47;4993904;28;96562;-33
2023/05/03 05:49:31;;;;;;;0.50;0.40;;;;;;;7.07;65.96;103084.31;4994138;28;96773;-31
2023/05/03 05:51:57;;;;;;;0.98;0.52;;;;;;;7.06;66.45;103091.50;4993787;28;99697;-31
2023/05/03 05:54:23;;;;;;;0.50;0.40;;;;;;;7.06;65.92;103086.13;4994055;28;97292;-32
2023/05/03 05:56:49;;;;;;;4.97;0.80;;;;;;;7.19;65.77;103086.84;4993982;28;96714;-31
2023/05/03 05:59:14;;;;;;;0.65;0.47;;;;;;;7.27;65.57;103089.47;4993008;28;96730;-31
2023/05/03 06:01:43;;;;;;;0.30;0.30;;;;;;;7.34;65.12;103084.00;4993587;28;99857;-31
2023/05/03 06:04:09;;;;;;;0.35;0.35;;;;;;;7.34;64.79;103091.16;4992118;28;100942;-31
2023/05/03 06:06:35;;;;;;;0.73;0.47;;;;;;;7.45;64.99;103087.44;4993424;28;96717;-32
2023/05/03 06:09:00;;;;;;;1.40;0.98;;;;;;;7.53;64.94;103081.97;4993542;28;96806;-31
2023/05/03 06:11:26;;;;;;;1.38;0.68;;;;;;;7.60;64.95;103080.97;4993609;28;97793;-32
2023/05/03 06:13:51;;;;;;;0.73;0.70;;;;;;;7.78;64.35;103079.81;4992020;28;101380;-32
2023/05/03 06:16:17;;;;;;;1.88;0.88;;;;;;;7.92;64.04;103076.06;4993735;28;96606;-31
2023/05/03 06:18:42;;;;;;;0.65;0.52;;;;;;;7.97;63.75;103085.84;4993360;28;96875;-33
2023/05/03 06:21:09;;;;;;;0.95;0.70;;;;;;;8.01;63.46;103084.91;4993369;28;99029;-31
2023/05/03 06:23:36;;;;;;;0.80;0.65;;;;;;;8.01;63.07;103074.09;4993867;28;97933;-31
2023/05/03 06:26:02;;;;;;;1.20;0.65;;;;;;;8.11;62.97;103077.56;4993208;28;96571;-31
2023/05/03 06:28:27;;;;;;;1.83;1.05;;;;;;;8.27;62.50;103081.78;4992129;28;96838;-31
2023/05/03 06:30:53;;;;;;;0.82;0.70;;;;;;;8.27;62.49;103087.19;4992968;28;97424;-32
2023/05/03 06:33:18;;;;;;;1.80;0.70;;;;;;;8.34;62.08;103084.38;4993305;28;97857;-31
2023/05/03 06:35:46;;;;;;;0.50;0.40;;;;;;;8.44;62.39;103084.25;4993091;28;96759;-33
2023/05/03 06:38:11;;;;;;;0.80;0.68;;;;;;;8.58;62.28;103075.00;4992923;28;96788;-32
2023/05/03 06:40:37;;;;;;;3.03;0.75;;;;;;;8.70;61.75;103073.00;4992694;28;99232;-31
2023/05/03 06:43:02;;;;;;;0.90;0.50;;;;;;;8.88;61.58;103065.47;4993143;28;97620;-32
2023/05/03 06:45:28;;;;;;;0.50;0.40;;;;;;;8.98;61.09;103058.97;4992582;28;97831;-32
2023/05/03 06:47:53;;;;;;;0.80;0.57;;;;;;;9.09;60.73;103072.28;4993388;28;96819;-31
2023/05/03 06:50:19;;;;;;;0.35;0.35;;;;;;;9.12;60.46;103061.41;4992479;28;97861;-32
2023/05/03 06:52:45;;;;;;;0.63;0.38;;;;;;;9.23;60.81;103066.59;4992806;28;99024;-31
2023/05/03 06:55:11;;;;;;;0.82;0.47;;;;;;;9.44;60.71;103062.53;4991161;28;96898;-31
2023/05/03 06:57:36;;;;;;;1.63;0.47;;;;;;;9.62;60.26;103050.44;4993328;28;96830;-31
2023/05/03 07:00:06;;;;;;;2.97;0.60;;;;;;;9.65;59.86;103059.38;4992753;28;99155;-31
2023/05/03 07:02:32;;;;;;;0.57;0.50;;;;;;;9.79;59.84;103051.84;4991257;28;101311;-31
2023/05/03 07:04:57;;;;;;;1.52;0.75;;;;;;;10.02;59.61;103055.84;4991447;28;96679;-32
2023/05/03 07:07:22;;;;;;;1.67;0.75;;;;;;;10.16;59.33;103039.25;4992970;28;96816;-32
2023/05/03 07:09:48;;;;;;;1.70;0.45;;;;;;;10.26;58.89;103040.81;4992910;28;97536;-31
2023/05/03 07:12:15;;;;;;;1.13;0.80;;;;;;;10.30;58.40;103039.84;4992878;28;99613;-32
2023/05/03 07:14:40;;;;;;;2.08;0.40;;;;;;;10.51;58.78;103035.72;4991315;28;96526;-32
2023/05/03 07:17:06;;;;;;;2.00;0.80;;;;;;;10.60;58.46;103040.84;4992578;28;96805;-31
2023/05/03 07:19:31;;;;;;;0.55;0.50;;;;;;;10.70;58.50;103035.19;4992201;28;97611;-31
2023/05/03 07:21:57;;;;;;;0.25;0.25;;;;;;;10.72;58.04;103028.78;4992148;28;97351;-32
2023/05/03 07:24:24;;;;;;;0.85;0.47;;;;;;;10.76;57.89;103025.06;4992262;28;96937;-31
2023/05/03 07:26:50;;;;;;;1.08;0.50;;;;;;;10.78;57.12;103028.66;4992537;28;96856;-31
2023/05/03 07:29:15;;;;;;;0.50;0.35;;;;;;;10.75;56.72;103022.41;4992231;28;99416;-31
2023/05/03 07:31:40;;;;;;;2.25;0.60;;;;;;;10.71;57.34;103026.16;4991992;28;100210;-32
2023/05/03 07:34:06;;;;;;;2.78;0.45;;;;;;;10.77;56.90;103029.59;4990220;28;96909;-31
2023/05/03 07:36:31;;;;;;;1.42;0.60;;;;;;;10.87;55.98;103024.81;4988576;28;97386;-32
2023/05/03 07:38:56;;;;;;;0.90;0.47;;;;;;;11.02;56.71;103028.91;4992713;28;97327;-31
2023/05/03 07:41:23;;;;;;;1.58;0.60;;;;;;;11.13;55.82;103017.72;4992555;28;97414;-31
2023/05/03 07:43:48;;;;;;;1.45;0.65;;;;;;;11.17;54.25;103003.16;4991176;28;97019;-33
2023/05/03 07:46:14;;;;;;;0.43;0.38;;;;;;;11.24;55.14;102993.88;4991291;28;96796;-32
2023/05/03 07:48:39;;;;;;;0.60;0.32;;;;;;;11.25;54.47;102999.28;4991983;28;99207;-31
2023/05/03 07:51:05;;;;;;;0.55;0.40;;;;;;;11.30;54.52;103000.94;4992046;28;98906;-32
2023/05/03 07:53:30;;;;;;;4.60;0.50;;;;;;;11.44;53.76;103005.03;4992167;28;96620;-32
2023/05/03 07:55:55;;;;;;;0.50;0.50;;;;;;;11.55;54.34;103001.09;4992366;28;96861;-31
2023/05/03 07:58:21;;;;;;;0.38;0.32;;;;;;;11.62;54.13;103008.13;4991834;28;97917;-32
2023/05/03 08:00:46;;;;;;;0.50;0.50;;;;;;;11.68;53.52;103016.09;4992173;28;97512;-32
2023/05/03 08:03:11;;;;;;;0.73;0.40;;;;;;;11.80;53.78;103021.13;4992009;28;96576;-31
2023/05/03 08:05:37;;;;;;;0.50;0.45;;;;;;;11.64;53.81;103019.81;4992250;28;96891;-31
2023/05/03 08:08:05;;;;;;;0.52;0.40;;;;;;;11.79;54.05;103024.75;4991421;28;98128;-34
2023/05/03 08:10:35;;;;;;;1.33;0.70;;;;;;;12.14;53.78;103027.31;4990367;28;100867;-31
2023/05/03 08:13:00;;;;;;;1.13;0.75;;;;;;;12.24;53.04;103005.22;4990655;28;96797;-33
2023/05/03 08:15:27;;;;;;;1.10;0.77;;;;;;;12.33;52.68;103009.44;4991837;28;96820;-32
2023/05/03 08:17:52;;;;;;;1.70;0.80;;;;;;;12.25;52.61;103000.66;4991829;28;97895;-32
2023/05/03 08:20:18;;;;;;;0.75;0.47;;;;;;;12.24;52.80;103007.03;4991528;28;99264;-32
2023/05/03 08:22:45;;;;;;;0.95;0.45;;;;;;;12.51;52.58;103002.47;4991807;28;96448;-32
2023/05/03 08:25:11;;;;;;;1.67;0.70;;;;;;;12.77;52.83;103001.53;4992107;28;96833;-32
2023/05/03 08:27:37;;;;;;;0.57;0.50;;;;;;;12.96;52.07;102999.91;4990233;28;101231;-33
2023/05/03 08:30:03;;;;;;;0.93;0.50;;;;;;;13.01;51.61;102999.75;4990000;28;101196;-31
2023/05/03 08:32:29;;;;;;;1.13;0.52;;;;;;;13.14;50.39;103002.94;4991059;28;96619;-32
2023/05/03 08:34:55;;;;;;;0.85;0.50;;;;;;;13.26;50.87;102994.28;4991546;28;96801;-32
2023/05/03 08:37:21;;;;;;;2.03;0.50;;;;;;;13.28;49.61;102999.72;4990159;28;100905;-32
2023/05/03 08:39:47;;;;;;;0.77;0.40;;;;;;;13.39;50.81;102997.44;4989996;28;100933;-31
2023/05/03 08:42:12;;;;;;;0.88;0.60;;;;;;;13.44;50.23;102998.16;4991812;28;96530;-31
2023/05/03 08:44:47;;;;;;;3.60;0.50;;;;;;;13.45;50.32;103004.50;4990786;28;96821;-32
2023/05/03 08:47:16;;;;;;;2.33;0.70;;;;;;;13.58;49.85;103003.94;4990179;28;101019;-31
2023/05/03 08:49:43;;;;;;;3.63;0.43;;;;;;;13.67;49.94;103013.59;4990281;28;101075;-32
2023/05/03 08:52:13;;;;;;;3.42;0.70;;;;;;;13.68;48.39;103017.19;4990098;28;96715;-31
2023/05/03 08:54:38;;;;;;;0.55;0.47;;;;;;;13.74;49.48;103003.34;4990194;28;96933;-31
2023/05/03 08:57:13;;;;;;;0.50;0.40;;;;;;;13.84;48.51;103014.75;4991006;28;97915;-31
2023/05/03 08:59:59;;;;;;;1.10;0.85;;;;;;;13.83;48.68;103024.78;4993374;28;100856;-32
2023/05/03 09:02:25;;;;;;;1.08;0.70;;;;;;;13.69;48.47;103016.25;4994865;28;96528;-31
2023/05/03 09:04:51;;;;;;;0.80;0.57;;;;;;;13.91;48.45;103016.28;4993266;28;96887;-33
2023/05/03 09:07:16;;;;;;;1.65;0.93;;;;;;;14.15;49.17;103009.81;4994501;28;99521;-31
2023/05/03 09:09:44;;;;;;;2.08;0.95;;;;;;;14.48;47.45;103012.06;4994436;28;99055;-31
2023/05/03 09:12:10;;;;;;;3.67;0.88;;;;;;;14.58;46.89;103018.91;4993306;28;96832;-31
2023/05/03 09:14:42;;;;;;;4.32;1.17;;;;;;;14.45;48.42;103010.34;4995159;28;96788;-31
2023/05/03 09:17:16;;;;;;;0.60;0.60;;;;;;;14.52;47.32;103018.28;4993017;28;100826;-32
2023/05/03 09:19:52;;;;;;;1.42;0.80;;;;;;;14.49;47.16;103016.56;4992953;28;101318;-32
2023/05/03 09:22:18;;;;;;;6.53;1.38;;;;;;;14.55;47.64;103012.72;4992643;28;97075;-34
2023/05/03 09:24:59;;;;;;;1.75;0.55;;;;;;;14.47;46.80;103017.56;4992926;28;96827;-31
2023/05/03 09:27:25;;;;;;;3.47;0.93;;;;;;;14.65;47.18;103009.50;4992974;28;99400;-31
2023/05/03 09:29:52;;;;;;;1.30;1.00;;;;;;;14.92;47.89;103005.59;4992725;28;100468;-31
2023/05/03 09:32:18;;;;;;;1.60;0.90;;;;;;;15.09;47.36;103005.75;4992948;28;96886;-33
2023/05/03 09:34:44;;;;;;;2.00;1.08;;;;;;;15.16;47.07;103015.41;4993014;28;96864;-31
2023/05/03 09:37:13;;;;;;;1.10;0.93;;;;;;;14.80;47.22;103010.69;4994273;28;97895;-33
2023/05/03 09:39:43;;;;;;;1.02;0.90;;;;;;;14.77;46.92;103005.34;4992983;28;100756;-31
2023/05/03 09:42:16;;;;;;;1.67;1.00;;;;;;;14.86;46.73;102996.75;4992850;28;96680;-31
2023/05/03 09:44:51;;;;;;;1.17;0.63;;;;;;;14.73;46.13;103009.19;4993581;28;96751;-31
2023/05/03 09:47:24;;;;;;;1.85;0.95;;;;;;;15.00;45.48;103003.44;4993629;28;97514;-34
2023/05/03 09:49:49;;;;;;;1.33;0.98;;;;;;;15.15;46.56;103008.16;4992654;28;100867;-32
2023/05/03 09:52:15;;;;;;;2.08;1.20;;;;;;;15.05;46.17;102995.91;4993925;28;96734;-32
2023/05/03 09:54:41;;;;;;;2.67;1.17;;;;;;;14.74;46.76;103000.03;4993833;28;96846;-32
2023/05/03 09:57:07;;;;;;;2.00;1.05;;;;;;;15.05;47.06;103002.25;4992186;28;100890;-32
2023/05/03 09:59:37;;;;;;;2.45;1.08;;;;;;;15.44;46.65;102997.72;4991973;28;101023;-32
2023/05/03 10:02:07;;;;;;;3.25;1.15;;;;;;;15.64;46.25;103000.41;4993905;28;96570;-33
2023/05/03 10:04:58;;;;;;;1.42;1.00;;;;;;;15.83;45.17;103005.00;4992787;28;96818;-31
2023/05/03 10:07:27;;;;;;;1.63;0.90;;;;;;;15.45;46.32;102994.06;4992319;28;101008;-32
2023/05/03 10:09:55;;;;;;;7.18;2.40;;;;;;;15.50;45.45;103005.63;4991002;28;100412;-31
2023/05/03 10:12:21;;;;;;;2.22;1.33;;;;;;;15.80;45.74;102994.19;4991838;28;96844;-31
2023/05/03 10:14:50;;;;;;;2.97;1.67;;;;;;;15.82;44.46;102997.75;4992266;28;96826;-32
2023/05/03 10:17:21;;;;;;;2.55;0.93;;;;;;;15.76;45.97;102993.47;4993321;28;100051;-34
2023/05/03 10:19:54;;;;;;;3.03;0.88;;;;;;;15.94;44.10;102991.66;4992456;28;100533;-31
2023/05/03 10:22:19;;;;;;;1.25;0.65;;;;;;;16.16;45.16;102985.13;4991823;28;98058;-31
2023/05/03 10:25:00;;;;;;;1.10;1.02;;;;;;;16.43;44.36;102989.19;4993439;28;96796;-31
2023/05/03 10:27:44;;;;;;;5.72;1.40;;;;;;;16.59;43.36;102985.63;4993566;28;98201;-32
2023/05/03 10:30:39;;;;;;;1.25;1.08;;;;;;;16.52;42.16;102988.69;4991913;28;101469;-33
2023/05/03 10:33:13;;;;;;;4.43;1.27;;;;;;;16.27;43.42;102989.06;4993453;28;96586;-33
2023/05/03 10:35:40;;;;;;;1.70;0.95;;;;;;;16.10;43.91;102992.69;4993184;28;96521;-31
2023/05/03 10:38:15;;;;;;;3.95;1.60;;;;;;;16.21;43.99;102983.03;4992806;28;97945;-32
2023/05/03 10:40:42;;;;;;;4.72;1.45;;;;;;;16.31;44.38;102981.63;4993278;28;98458;-33
2023/05/03 10:43:30;;;;;;;2.80;1.23;;;;;;;16.55;43.46;102990.38;4991838;28;96579;-32
2023/05/03 10:45:59;;;;;;;4.90;1.45;;;;;;;16.32;42.62;102980.63;4992665;28;96703;-32
2023/05/03 10:48:25;;;;;;;3.33;1.20;;;;;;;16.26;44.42;102973.66;4991602;28;101197;-33
2023/05/03 10:50:51;;;;;;;2.05;1.05;;;;;;;16.38;44.68;102974.84;4991651;28;100965;-32
2023/05/03 10:53:37;;;;;;;3.03;1.35;;;;;;;16.50;41.93;102968.75;4991799;28;96754;-32
2023/05/03 10:56:07;;;;;;;1.88;1.10;;;;;;;16.62;42.82;102975.41;4993318;28;96822;-31
2023/05/03 10:58:40;;;;;;;2.13;0.98;;;;;;;16.48;42.76;102967.06;4991184;28;101082;-33
2023/05/03 11:01:09;;;;;;;5.90;1.52;;;;;;;16.43;43.02;102972.75;4991426;28;101584;-33
2023/05/03 11:03:39;;;;;;;3.78;1.13;;;;;;;16.38;42.16;102965.78;4992299;28;96454;-32
2023/05/03 11:06:05;;;;;;;1.42;0.80;;;;;;;16.44;42.94;102959.97;4991395;28;96773;-32
2023/05/03 11:08:36;;;;;;;2.20;1.27;;;;;;;16.51;42.58;102956.81;4991353;28;101271;-32
2023/05/03 11:11:08;;;;;;;2.17;1.10;;;;;;;16.52;43.06;102955.88;4992635;28;99218;-31
2023/05/03 11:13:33;;;;;;;3.38;1.05;;;;;;;16.66;43.41;102938.72;4992817;28;96643;-31
2023/05/03 11:15:59;;;;;;;2.60;1.38;;;;;;;16.73;43.49;102947.47;4993123;28;96579;-32
2023/05/03 11:18:28;;;;;;;1.83;1.15;;;;;;;16.82;42.69;102944.25;4992494;28;99342;-31
2023/05/03 11:20:54;;;;;;;2.10;1.23;;;;;;;16.98;43.09;102936.97;4992687;28;98827;-32
2023/05/03 11:23:27;;;;;;;3.10;1.38;;;;;;;17.04;41.89;102941.25;4991205;28;97889;-31
2023/05/03 11:25:53;;;;;;;3.00;1.38;;;;;;;16.98;41.04;102926.03;4992372;28;96655;-31
2023/05/03 11:28:19;;;;;;;2.63;1.20;;;;;;;16.83;41.83;102924.16;4990562;28;101329;-32